Time;durP1;ratioP1;P1;durP2;ratioP2;P2;SDS_P1;SDS_P2;PMS_P1;PMS_P2;Temp;Humidity;BMP_temperature;BMP_pressure;BME280_temperature;BME280_humidity;BME280_pressure;Samples;Min_cycle;Max_cycle;Signal;HPM_P1;HPM_P2
2022/09/05 00:02:24;;;;;;;5.43;4.00;;;15.80;1.00;;;;;;5010359;28;20424;-75
2022/09/05 00:05:33;;;;;;;11.93;4.50;;;15.70;1.00;;;;;;5027659;28;20470;-75
2022/09/05 00:08:07;;;;;;;11.13;4.50;;;15.70;1.00;;;;;;5003570;28;20438;-75
2022/09/05 00:10:47;;;;;;;8.33;5.03;;;15.60;1.00;;;;;;5021605;28;20547;-75
2022/09/05 00:13:36;;;;;;;7.20;4.23;;;15.60;1.00;;;;;;5021355;28;20419;-76
2022/09/05 00:16:26;;;;;;;10.00;4.90;;;15.60;1.00;;;;;;5013815;28;20435;-76
2022/09/05 00:19:06;;;;;;;5.23;4.60;;;15.60;1.00;;;;;;4999055;28;20421;-75
2022/09/05 00:22:06;;;;;;;9.83;5.10;;;15.60;1.00;;;;;;4997035;28;20403;-75
2022/09/05 00:24:42;;;;;;;7.73;4.83;;;15.50;1.00;;;;;;5015573;28;20952;-75
2022/09/05 00:27:44;;;;;;;6.70;4.73;;;15.50;1.00;;;;;;5018301;28;20427;-75
2022/09/05 00:30:18;;;;;;;7.33;5.13;;;15.50;1.00;;;;;;4929962;29;20478;-83
2022/09/05 00:33:21;;;;;;;7.20;4.93;;;15.40;1.00;;;;;;4904555;29;20418;-83
2022/09/05 00:42:53;;;;;;;8.00;4.57;;;15.40;1.00;;;;;;4963001;28;20465;-84
2022/09/05 00:45:42;;;;;;;6.50;4.80;;;15.30;1.00;;;;;;4957523;28;20401;-75
2022/09/05 00:48:30;;;;;;;11.17;4.77;;;15.30;1.00;;;;;;4955056;29;20426;-75
2022/09/05 00:51:12;;;;;;;6.43;4.53;;;15.30;1.00;;;;;;4952527;29;21005;-75
2022/09/05 00:54:15;;;;;;;6.30;4.50;;;15.30;1.00;;;;;;4954737;29;20410;-75
2022/09/05 00:56:52;;;;;;;4.80;4.20;;;15.30;1.00;;;;;;4955082;29;20473;-75
2022/09/05 00:59:51;;;;;;;7.70;4.80;;;15.30;1.00;;;;;;4955447;28;20430;-84
2022/09/05 01:02:41;;;;;;;7.37;4.47;;;15.30;1.00;;;;;;4936297;29;20784;-84
2022/09/05 01:05:53;;;;;;;5.80;4.73;;;15.20;1.00;;;;;;4939095;29;20442;-83
2022/09/05 01:15:10;;;;;;;4.80;4.30;;;15.20;1.00;;;;;;5010902;28;20463;-75
2022/09/05 01:18:06;;;;;;;7.10;5.00;;;15.10;1.00;;;;;;5014874;28;20444;-75
2022/09/05 01:21:12;;;;;;;7.77;4.83;;;15.10;1.00;;;;;;5013401;28;20879;-76
2022/09/05 01:23:56;;;;;;;5.07;4.40;;;15.10;1.00;;;;;;4996120;28;20511;-75
2022/09/05 01:26:51;;;;;;;6.23;4.50;;;15.10;1.00;;;;;;5022138;28;20728;-75
2022/09/05 01:29:37;;;;;;;5.23;4.73;;;15.10;1.00;;;;;;5012467;28;20440;-84
2022/09/05 01:42:39;;;;;;;4.73;4.23;;;15.10;1.00;;;;;;5012783;28;20414;-84
2022/09/05 01:48:51;;;;;;;9.43;4.83;;;15.10;1.00;;;;;;5019124;28;20474;-83
2022/09/05 01:51:44;;;;;;;6.07;4.70;;;15.10;1.00;;;;;;5003436;28;20455;-84
2022/09/05 01:54:46;;;;;;;5.80;4.60;;;15.10;1.00;;;;;;5004000;28;20448;-84
2022/09/05 02:00:57;;;;;;;6.60;4.77;;;15.00;1.00;;;;;;5003788;28;20409;-75
2022/09/05 02:03:47;;;;;;;4.70;4.03;;;15.10;1.00;;;;;;5015386;28;20411;-75
2022/09/05 02:06:32;;;;;;;6.83;5.17;;;15.00;1.00;;;;;;5021718;28;20434;-76
2022/09/05 02:09:40;;;;;;;7.17;5.40;;;15.00;1.00;;;;;;5037040;28;20427;-76
2022/09/05 02:12:14;;;;;;;6.53;4.47;;;15.00;1.00;;;;;;5020353;28;20433;-76
2022/09/05 02:18:51;;;;;;;7.10;4.97;;;15.00;1.00;;;;;;5014396;28;20846;-84
2022/09/05 02:28:10;;;;;;;5.50;4.60;;;14.90;1.00;;;;;;5019454;28;20441;-83
2022/09/05 02:34:45;;;;;;;8.40;4.50;;;14.80;1.00;;;;;;5025781;28;20530;-84
2022/09/05 02:37:33;;;;;;;7.10;5.60;;;14.80;1.00;;;;;;4993777;28;20464;-84
2022/09/05 02:44:03;;;;;;;7.47;5.80;;;14.80;1.00;;;;;;5000927;28;20553;-84
2022/09/05 02:46:58;;;;;;;8.33;5.10;;;14.80;1.00;;;;;;5013276;28;20482;-75
2022/09/05 02:50:03;;;;;;;10.97;5.97;;;14.80;1.00;;;;;;5046484;28;20744;-75
2022/09/05 02:52:42;;;;;;;6.30;5.60;;;14.80;1.00;;;;;;5024793;28;20374;-76
2022/09/05 02:55:38;;;;;;;7.63;5.10;;;14.80;1.00;;;;;;5045251;28;20982;-75
2022/09/05 02:58:55;;;;;;;8.37;4.97;;;14.80;1.00;;;;;;5015042;28;20452;-76
2022/09/05 03:01:57;;;;;;;8.47;6.20;;;14.80;1.00;;;;;;4953765;29;20768;-76
2022/09/05 03:04:32;;;;;;;5.97;4.90;;;14.80;1.00;;;;;;4956121;29;20438;-75
2022/09/05 03:07:21;;;;;;;7.07;5.50;;;14.90;1.00;;;;;;4957042;29;21018;-76
2022/09/05 03:10:12;;;;;;;7.63;5.37;;;14.90;1.00;;;;;;4942755;29;20886;-76
2022/09/05 03:13:15;;;;;;;7.70;4.87;;;14.90;1.00;;;;;;4946639;29;20470;-75
2022/09/05 03:16:11;;;;;;;8.33;5.17;;;14.90;1.00;;;;;;4944365;29;21085;-76
2022/09/05 03:18:53;;;;;;;10.97;6.30;;;14.90;1.00;;;;;;4895467;29;20416;-75
2022/09/05 03:21:28;;;;;;;9.40;6.23;;;14.90;1.00;;;;;;4875586;29;20421;-76
2022/09/05 03:24:30;;;;;;;8.97;5.93;;;15.00;1.00;;;;;;4896393;29;20500;-75
2022/09/05 03:27:33;;;;;;;7.33;5.20;;;15.00;1.00;;;;;;4895606;29;20442;-76
2022/09/05 03:30:23;;;;;;;5.27;4.77;;;15.00;1.00;;;;;;4882211;29;20444;-76
2022/09/05 03:33:35;;;;;;;9.90;5.37;;;15.00;1.00;;;;;;4882366;29;20933;-76
2022/09/05 03:36:39;;;;;;;5.00;4.47;;;15.10;1.00;;;;;;4923559;29;20470;-75
2022/09/05 03:39:24;;;;;;;7.90;5.07;;;15.10;1.00;;;;;;4944617;29;20918;-76
2022/09/05 03:42:09;;;;;;;10.37;5.23;;;15.10;1.00;;;;;;4945434;29;20497;-76
2022/09/05 03:48:27;;;;;;;11.17;5.60;;;15.20;1.00;;;;;;4937468;29;20495;-84
2022/09/05 03:51:30;;;;;;;10.43;6.10;;;15.30;1.00;;;;;;4937699;29;20817;-84
2022/09/05 03:57:57;;;;;;;4.80;4.30;;;15.30;1.00;;;;;;5006435;28;20559;-84
2022/09/05 04:01:03;;;;;;;5.30;4.80;;;15.30;1.00;;;;;;5034820;28;20513;-84
2022/09/05 04:06:56;;;;;;;9.17;4.80;;;15.30;1.00;;;;;;5021337;28;21054;-84
2022/09/05 04:12:53;;;;;;;5.20;4.63;;;15.30;1.00;;;;;;5018807;28;20854;-84
2022/09/05 04:16:14;;;;;;;18.67;5.50;;;15.30;1.00;;;;;;5035553;28;20423;-84
2022/09/05 04:19:12;;;;;;;6.33;4.37;;;15.40;1.00;;;;;;5036374;28;20427;-84
2022/09/05 04:25:37;;;;;;;6.20;4.60;;;15.30;1.00;;;;;;4994940;28;20484;-84
2022/09/05 04:31:48;;;;;;;7.40;4.80;;;15.30;1.00;;;;;;5005511;28;20762;-84
2022/09/05 04:37:37;;;;;;;5.07;4.67;;;15.20;1.00;;;;;;5013118;28;20483;-84
2022/09/05 04:43:47;;;;;;;5.03;4.30;;;15.20;1.00;;;;;;4994418;28;20419;-85
2022/09/05 04:46:30;;;;;;;5.03;4.50;;;15.20;1.00;;;;;;4978219;28;20449;-84
2022/09/05 04:49:21;;;;;;;7.33;5.17;;;15.20;1.00;;;;;;4991158;28;20429;-83
2022/09/05 04:52:01;;;;;;;6.57;4.93;;;15.20;1.00;;;;;;4992216;28;20440;-83
2022/09/05 04:58:24;;;;;;;4.57;4.17;;;15.20;1.00;;;;;;5017401;28;20443;-83
2022/09/05 05:01:18;;;;;;;9.93;5.27;;;15.10;1.00;;;;;;4992058;28;20930;-73
2022/09/05 05:03:45;;;;;;;9.30;5.10;;;15.10;1.00;;;;;;4928692;29;20451;-72
2022/09/05 05:06:33;;;;;;;6.93;5.87;;;15.10;1.00;;;;;;4931754;29;20792;-73
2022/09/05 05:09:17;;;;;;;5.90;5.30;;;15.20;1.00;;;;;;4930834;29;20426;-73
2022/09/05 05:11:53;;;;;;;10.03;4.73;;;15.20;1.00;;;;;;4938977;29;20412;-73
2022/09/05 05:14:25;;;;;;;6.80;5.00;;;15.20;1.00;;;;;;4934089;29;20451;-73
2022/09/05 05:20:23;;;;;;;9.20;4.60;;;15.30;1.00;;;;;;4954890;28;20393;-83
2022/09/05 05:23:17;;;;;;;9.13;4.83;;;15.50;1.00;;;;;;4951686;29;20500;-83
2022/09/05 05:26:21;;;;;;;6.73;5.07;;;15.50;1.00;;;;;;4950168;29;20553;-82
2022/09/05 05:32:29;;;;;;;6.23;4.90;;;15.70;1.00;;;;;;4935083;29;20524;-83
2022/09/05 05:38:22;;;;;;;11.03;4.77;;;15.80;1.00;;;;;;5010283;28;20431;-82
2022/09/05 05:41:33;;;;;;;10.20;4.40;;;15.90;1.00;;;;;;5031922;28;20406;-82
2022/09/05 05:44:37;;;;;;;12.53;4.60;;;15.90;1.00;;;;;;5035989;28;20396;-82
2022/09/05 05:47:45;;;;;;;11.90;5.00;;;15.90;1.00;;;;;;5025239;28;20476;-83
2022/09/05 05:50:53;;;;;;;6.47;4.20;;;15.90;1.00;;;;;;5033213;28;20409;-83
2022/09/05 06:03:41;;;;;;;7.10;4.40;;;16.20;1.00;;;;;;5028411;28;20445;-74
2022/09/05 06:06:44;;;;;;;8.87;4.20;;;16.30;1.00;;;;;;5028823;28;20409;-74
2022/09/05 06:09:39;;;;;;;5.63;3.83;;;16.30;1.00;;;;;;5035612;28;20458;-74
2022/09/05 06:12:52;;;;;;;5.63;4.10;;;16.40;1.00;;;;;;5031521;28;20416;-76
2022/09/05 06:15:40;;;;;;;5.07;3.80;;;16.50;1.00;;;;;;4972364;28;20521;-74
2022/09/05 06:18:30;;;;;;;6.80;4.53;;;16.60;1.00;;;;;;4972584;28;20397;-74
2022/09/05 06:21:33;;;;;;;13.93;4.40;;;16.70;1.00;;;;;;4967648;28;20533;-74
2022/09/05 06:24:11;;;;;;;14.20;4.30;;;16.80;1.00;;;;;;4977015;28;20460;-74
2022/09/05 06:26:53;;;;;;;11.70;4.57;;;16.90;1.00;;;;;;4973600;28;20404;-74
2022/09/05 06:29:24;;;;;;;7.53;5.27;;;17.10;1.00;;;;;;4971939;28;20429;-74
2022/09/05 06:31:56;;;;;;;10.83;4.40;;;17.20;1.00;;;;;;4976548;28;20427;-82
2022/09/05 06:34:46;;;;;;;7.87;3.70;;;17.30;1.00;;;;;;4972925;28;20787;-82
2022/09/05 06:37:46;;;;;;;6.80;4.27;;;17.40;1.00;;;;;;4972296;28;20467;-82
2022/09/05 06:40:37;;;;;;;7.83;4.80;;;17.60;1.00;;;;;;4973272;28;20402;-82
2022/09/05 06:46:32;;;;;;;18.30;4.43;;;17.90;1.00;;;;;;4980838;28;20457;-82
2022/09/05 06:49:33;;;;;;;6.83;4.60;;;18.10;1.00;;;;;;5009927;28;20414;-82
2022/09/05 06:52:53;;;;;;;9.90;4.13;;;18.30;1.00;;;;;;5023127;28;20792;-82
2022/09/05 06:56:04;;;;;;;9.80;4.30;;;18.40;1.00;;;;;;5008303;28;20468;-87
2022/09/05 07:05:37;;;;;;;5.83;4.33;;;19.00;1.00;;;;;;4993338;28;20434;-78
2022/09/05 07:08:33;;;;;;;11.23;4.47;;;19.20;1.00;;;;;;5004118;28;20953;-77
2022/09/05 07:11:31;;;;;;;17.77;4.53;;;19.30;1.00;;;;;;4998979;28;20967;-77
2022/09/05 07:14:03;;;;;;;13.53;3.70;;;19.50;1.00;;;;;;4997651;28;20509;-78
2022/09/05 07:16:38;;;;;;;9.20;4.17;;;19.60;1.00;;;;;;4982878;28;20890;-78
2022/09/05 07:19:15;;;;;;;8.73;3.47;;;19.80;1.00;;;;;;5010566;28;20451;-78
2022/09/05 07:21:52;;;;;;;8.03;3.90;;;20.00;1.00;;;;;;5007678;28;21006;-78
2022/09/05 07:24:26;;;;;;;7.93;3.27;;;20.10;1.00;;;;;;5009825;28;20430;-79
2022/09/05 07:26:55;;;;;;;4.10;3.70;;;20.30;1.00;;;;;;5003596;28;20493;-78
2022/09/05 07:29:26;;;;;;;3.90;3.10;;;20.50;1.00;;;;;;5012225;28;20550;-77
2022/09/05 07:31:55;;;;;;;5.17;3.27;;;20.60;1.00;;;;;;5036831;28;20545;-79
2022/09/05 07:34:25;;;;;;;5.40;3.20;;;20.80;1.00;;;;;;5039800;28;20426;-78
2022/09/05 07:36:54;;;;;;;3.73;3.40;;;21.00;1.00;;;;;;5053840;28;20846;-78
2022/09/05 07:39:25;;;;;;;3.00;2.70;;;21.10;1.00;;;;;;5045915;28;20982;-78
2022/09/05 07:41:57;;;;;;;8.87;3.07;;;21.30;1.00;;;;;;5055473;28;20471;-78
2022/09/05 07:44:30;;;;;;;3.53;2.90;;;21.40;1.00;;;;;;5045061;28;20494;-78
2022/09/05 07:47:07;;;;;;;5.13;3.07;;;21.50;1.00;;;;;;5035699;28;20392;-78
2022/09/05 07:49:36;;;;;;;3.73;2.87;;;21.60;1.00;;;;;;5042007;28;20500;-79
2022/09/05 07:52:26;;;;;;;3.83;2.67;;;21.70;1.00;;;;;;5045367;28;20443;-79
2022/09/05 07:54:53;;;;;;;3.30;3.00;;;21.80;1.00;;;;;;5039137;28;20440;-79
2022/09/05 07:57:25;;;;;;;3.17;2.50;;;21.90;1.00;;;;;;5041692;28;20460;-80
2022/09/05 07:59:54;;;;;;;5.40;2.63;;;22.00;1.00;;;;;;5047203;28;20451;-79
2022/09/05 08:02:20;;;;;;;4.40;2.67;;;22.10;1.00;;;;;;5038029;28;20442;-79
2022/09/05 08:04:46;;;;;;;5.93;2.97;;;22.20;1.00;;;;;;5046296;28;20407;-79
2022/09/05 08:07:16;;;;;;;2.77;2.30;;;22.30;1.00;;;;;;5055020;28;20178;-80
2022/09/05 08:09:52;;;;;;;4.60;2.80;;;22.40;1.00;;;;;;5048851;28;20183;-80
2022/09/05 08:12:35;;;;;;;6.83;2.87;;;22.50;1.00;;;;;;5035182;28;20822;-80
2022/09/05 08:15:10;;;;;;;3.80;2.80;;;22.60;1.00;;;;;;5031421;28;20444;-79
2022/09/05 08:18:12;;;;;;;5.63;2.80;;;22.60;1.00;;;;;;5030151;28;20451;-79
2022/09/05 08:20:59;;;;;;;4.43;2.50;;;22.70;1.00;;;;;;5038398;28;20649;-79
2022/09/05 08:23:49;;;;;;;6.53;2.63;;;22.80;1.00;;;;;;5037299;28;20414;-79
2022/09/05 08:26:39;;;;;;;7.83;2.43;;;23.00;1.00;;;;;;5046599;28;20410;-81
2022/09/05 08:29:25;;;;;;;3.10;2.40;;;23.00;1.00;;;;;;5046429;28;20892;-81
2022/09/05 08:32:11;;;;;;;4.07;2.50;;;23.10;1.00;;;;;;5042334;28;20418;-82
2022/09/05 08:34:46;;;;;;;4.30;2.50;;;23.20;1.00;;;;;;5037613;28;20430;-82
2022/09/05 08:37:24;;;;;;;4.33;2.50;;;23.20;1.00;;;;;;5034777;28;20509;-87
2022/09/05 08:40:02;;;;;;;4.20;2.50;;;23.30;1.00;;;;;;5034624;28;20400;-87
2022/09/05 08:42:38;;;;;;;4.57;2.60;;;23.30;1.00;;;;;;5034794;28;20501;-87
2022/09/05 08:45:03;;;;;;;2.50;2.30;;;23.40;1.00;;;;;;5022732;28;20415;-88
2022/09/05 08:47:46;;;;;;;4.30;2.80;;;23.40;1.00;;;;;;5034399;28;20476;-84
2022/09/05 08:50:40;;;;;;;3.23;2.67;;;23.50;1.00;;;;;;5033988;28;20190;-80
2022/09/05 08:56:39;;;;;;;3.27;2.53;;;24.00;1.00;;;;;;5026969;28;20495;-81
2022/09/05 08:59:25;;;;;;;3.27;2.40;;;24.10;1.00;;;;;;5037513;28;20415;-81
2022/09/05 09:02:17;;;;;;;4.90;2.50;;;24.10;1.00;;;;;;5049863;28;20417;-80
2022/09/05 09:05:47;;;;;;;2.40;2.20;;;24.10;1.00;;;;;;5024640;28;20404;-80
2022/09/05 09:08:36;;;;;;;4.57;1.83;;;24.10;1.00;;;;;;4956727;28;20398;-80
2022/09/05 09:11:15;;;;;;;2.60;2.40;;;24.20;1.00;;;;;;4970151;28;20573;-80
2022/09/05 09:14:16;;;;;;;2.60;2.33;;;24.40;1.00;;;;;;4970233;28;20792;-80
2022/09/05 09:16:59;;;;;;;10.03;2.00;;;24.50;1.00;;;;;;4937952;28;20493;-80
2022/09/05 09:20:03;;;;;;;4.53;2.17;;;24.70;1.00;;;;;;4973236;28;20970;-80
2022/09/05 09:22:50;;;;;;;1.90;1.80;;;25.10;1.00;;;;;;4896536;29;20450;-80
2022/09/05 09:25:27;;;;;;;2.53;2.27;;;25.40;1.00;;;;;;4896346;29;20441;-80
2022/09/05 09:28:48;;;;;;;3.10;1.93;;;25.60;1.00;;;;;;4887444;29;20437;-80
2022/09/05 09:31:51;;;;;;;1.70;1.60;;;25.80;1.00;;;;;;4889902;29;22647;-79
2022/09/05 09:35:09;;;;;;;3.23;2.00;;;26.20;1.00;;;;;;4892475;29;20464;-79
2022/09/05 09:38:04;;;;;;;2.10;1.70;;;26.70;1.00;;;;;;4884782;29;20562;-80
2022/09/05 09:41:06;;;;;;;5.67;2.30;;;27.20;1.00;;;;;;4906000;29;20519;-81
2022/09/05 09:43:51;;;;;;;2.80;1.90;;;27.60;1.00;;;;;;4915482;29;20422;-80
2022/09/05 09:46:44;;;;;;;2.00;1.90;;;27.90;1.00;;;;;;4936775;29;20435;-80
2022/09/05 09:49:37;;;;;;;2.50;2.27;;;28.00;1.00;;;;;;4964413;28;20501;-80
2022/09/05 09:55:49;;;;;;;4.63;2.33;;;28.00;1.00;;;;;;4958863;28;20449;-80
2022/09/05 09:58:15;;;;;;;2.60;2.00;;;27.90;1.00;;;;;;4975167;28;20493;-80
2022/09/05 10:01:08;;;;;;;5.53;2.20;;;27.80;1.00;;;;;;5044681;28;20424;-80
2022/09/05 10:03:55;;;;;;;4.70;2.13;;;27.90;1.00;;;;;;4985267;28;20414;-80
2022/09/05 10:10:11;;;;;;;14.33;2.20;;;28.40;1.00;;;;;;4978203;28;20443;-80
2022/09/05 10:13:15;;;;;;;3.27;1.77;;;28.60;1.00;;;;;;4972765;28;20543;-80
2022/09/05 10:19:18;;;;;;;1.70;1.60;;;28.50;1.00;;;;;;4972557;28;20405;-80
2022/09/05 10:22:21;;;;;;;1.90;1.80;;;28.30;1.00;;;;;;4985355;28;20556;-80
2022/09/05 10:25:33;;;;;;;1.70;1.60;;;28.60;1.00;;;;;;4976321;28;20582;-80
2022/09/05 10:28:26;;;;;;;3.60;1.40;;;28.90;1.00;;;;;;4968832;28;20456;-80
2022/09/05 10:31:09;;;;;;;4.63;1.30;;;28.90;1.00;;;;;;4975086;28;20852;-80
2022/09/05 10:33:58;;;;;;;2.33;1.30;;;29.00;1.00;;;;;;4972163;28;20445;-80
2022/09/05 10:36:26;;;;;;;3.37;1.40;;;29.10;1.00;;;;;;4982485;28;20896;-81
2022/09/05 10:39:11;;;;;;;2.30;1.47;;;29.00;1.00;;;;;;4965399;28;20443;-81
2022/09/05 10:41:56;;;;;;;4.63;1.37;;;29.00;1.00;;;;;;5044811;28;20453;-82
2022/09/05 10:44:40;;;;;;;6.80;4.77;;;28.90;1.00;;;;;;5036926;28;20423;-81
2022/09/05 10:47:40;;;;;;;10.40;4.27;;;29.10;1.00;;;;;;5032158;28;20436;-81
2022/09/05 10:50:18;;;;;;;2.13;1.93;;;29.20;1.00;;;;;;5030867;28;20428;-81
2022/09/05 10:52:50;;;;;;;1.70;1.60;;;29.20;1.00;;;;;;5038191;28;20446;-81
2022/09/05 10:55:25;;;;;;;1.30;1.20;;;29.30;1.00;;;;;;5033864;28;20429;-81
2022/09/05 10:58:26;;;;;;;1.97;1.60;;;29.10;1.00;;;;;;5042585;28;20505;-80
2022/09/05 11:01:24;;;;;;;1.63;1.53;;;29.10;1.00;;;;;;5035041;28;20433;-80
2022/09/05 11:04:05;;;;;;;1.43;1.33;;;29.10;1.00;;;;;;5043441;28;20460;-80
2022/09/05 11:06:56;;;;;;;1.30;1.20;;;29.00;1.00;;;;;;5051947;28;20417;-81
2022/09/05 11:09:41;;;;;;;1.67;1.57;;;29.00;1.00;;;;;;5031722;28;20445;-81
2022/09/05 11:12:28;;;;;;;5.87;1.50;;;29.20;1.00;;;;;;5039120;28;20471;-80
2022/09/05 11:15:00;;;;;;;2.97;1.70;;;29.40;1.00;;;;;;5039245;28;20533;-80
2022/09/05 11:17:47;;;;;;;17.30;1.50;;;29.40;1.00;;;;;;5022705;28;20468;-81
2022/09/05 11:20:28;;;;;;;2.80;1.33;;;29.60;1.00;;;;;;5049473;28;20439;-80
2022/09/05 11:23:01;;;;;;;2.40;1.50;;;29.70;1.00;;;;;;5034302;28;20441;-81
2022/09/05 11:25:28;;;;;;;1.67;1.53;;;29.90;1.00;;;;;;5030014;28;20421;-81
2022/09/05 11:28:01;;;;;;;2.90;1.50;;;29.90;1.00;;;;;;5027306;28;20936;-81
2022/09/05 11:30:32;;;;;;;1.80;1.33;;;30.00;1.00;;;;;;5035314;28;20425;-81
2022/09/05 11:33:22;;;;;;;2.20;1.30;;;30.00;1.00;;;;;;5032768;28;20446;-81
2022/09/05 11:35:54;;;;;;;1.73;1.30;;;30.10;1.00;;;;;;5037597;28;20428;-81
2022/09/05 11:38:33;;;;;;;1.90;1.37;;;30.20;1.00;;;;;;5041572;28;20458;-80
2022/09/05 11:41:15;;;;;;;1.50;1.40;;;30.30;1.00;;;;;;5033593;28;20514;-82
2022/09/05 11:43:58;;;;;;;1.40;1.30;;;30.50;1.00;;;;;;5030187;28;21790;-81
2022/09/05 11:46:24;;;;;;;1.33;1.23;;;30.60;1.00;;;;;;5041259;28;20431;-82
2022/09/05 11:49:28;;;;;;;1.63;1.53;;;30.80;1.00;;;;;;5034806;28;20803;-80
2022/09/05 11:52:04;;;;;;;2.97;1.30;;;30.80;1.00;;;;;;5041481;28;20877;-77
2022/09/05 11:55:23;;;;;;;2.53;1.57;;;30.90;1.00;;;;;;5046473;28;20433;-79
2022/09/05 11:58:02;;;;;;;5.20;1.43;;;30.90;1.00;;;;;;5035041;28;20450;-77
2022/09/05 12:00:50;;;;;;;3.90;1.50;;;30.80;1.00;;;;;;5036302;28;20966;-72
2022/09/05 12:04:00;;;;;;;1.40;1.30;;;30.80;1.00;;;;;;5036683;28;20426;-76
2022/09/05 12:06:44;;;;;;;3.17;1.27;;;31.00;1.00;;;;;;5036398;28;20438;-73
2022/09/05 12:09:10;;;;;;;2.20;1.13;;;31.20;1.00;;;;;;5028858;28;20439;-74
2022/09/05 12:11:47;;;;;;;1.97;1.70;;;31.40;1.00;;;;;;5040976;28;20467;-74
2022/09/05 12:14:29;;;;;;;1.50;1.40;;;31.30;1.00;;;;;;5044247;28;20657;-74
2022/09/05 12:17:16;;;;;;;1.63;1.17;;;31.20;1.00;;;;;;5042962;28;20791;-73
2022/09/05 12:20:24;;;;;;;2.43;1.50;;;31.20;1.00;;;;;;5035519;28;20418;-73
2022/09/05 12:23:01;;;;;;;5.70;1.37;;;31.10;1.00;;;;;;4996370;28;21059;-75
2022/09/05 12:25:32;;;;;;;3.53;1.30;;;31.00;1.00;;;;;;4993564;28;20428;-76
2022/09/05 12:28:06;;;;;;;1.77;1.27;;;31.10;1.00;;;;;;4987671;28;20444;-75
2022/09/05 12:30:36;;;;;;;1.30;1.30;;;31.20;1.00;;;;;;4999529;28;20424;-75
2022/09/05 12:33:11;;;;;;;4.40;1.30;;;31.30;1.00;;;;;;4991789;28;20531;-73
2022/09/05 12:35:40;;;;;;;2.50;1.40;;;30.80;1.00;;;;;;4995113;28;20441;-76
2022/09/05 12:38:29;;;;;;;2.43;1.40;;;30.80;1.00;;;;;;5003700;28;20461;-71
2022/09/05 12:41:09;;;;;;;1.67;1.20;;;30.80;1.00;;;;;;5013085;28;20459;-71
2022/09/05 12:43:39;;;;;;;1.80;1.70;;;30.70;1.00;;;;;;4999674;28;20850;-71
2022/09/05 12:46:18;;;;;;;1.43;1.13;;;30.70;1.00;;;;;;4995992;28;20440;-70
2022/09/05 12:49:10;;;;;;;1.60;1.50;;;30.70;1.00;;;;;;5013218;28;20439;-70
2022/09/05 12:51:45;;;;;;;3.23;1.73;;;30.90;1.00;;;;;;5005479;28;20432;-70
2022/09/05 12:54:26;;;;;;;4.23;1.30;;;31.00;1.00;;;;;;4992819;28;20908;-70
2022/09/05 12:57:01;;;;;;;1.40;1.30;;;31.20;1.00;;;;;;4995920;28;20476;-70
2022/09/05 12:59:28;;;;;;;1.90;1.43;;;31.30;1.00;;;;;;5024982;28;20435;-70
2022/09/05 13:02:06;;;;;;;1.40;1.30;;;31.40;1.00;;;;;;5036079;28;20423;-70
2022/09/05 13:04:47;;;;;;;1.13;1.13;;;31.50;1.00;;;;;;5031690;28;20940;-70
2022/09/05 13:07:19;;;;;;;4.70;1.50;;;31.70;1.00;;;;;;5037734;28;20419;-74
2022/09/05 13:10:04;;;;;;;1.20;1.20;;;31.60;1.00;;;;;;5029526;28;21004;-77
2022/09/05 13:12:46;;;;;;;3.23;1.10;;;31.60;1.00;;;;;;5033189;28;20923;-75
2022/09/05 13:15:35;;;;;;;3.33;1.40;;;31.70;1.00;;;;;;5030283;28;20447;-75
2022/09/05 13:18:08;;;;;;;5.80;1.60;;;31.90;1.00;;;;;;5037683;28;20465;-76
2022/09/05 13:20:38;;;;;;;2.50;1.20;;;32.00;1.00;;;;;;5038881;28;20415;-75
2022/09/05 13:23:26;;;;;;;1.50;1.40;;;32.30;1.00;;;;;;5041372;28;20886;-76
2022/09/05 13:26:06;;;;;;;3.60;1.23;;;32.50;1.00;;;;;;5023342;28;20403;-75
2022/09/05 13:28:54;;;;;;;2.07;1.43;;;32.80;1.00;;;;;;5038566;28;20516;-75
2022/09/05 13:31:40;;;;;;;1.50;1.30;;;33.00;1.00;;;;;;5038132;28;20514;-76
2022/09/05 13:34:21;;;;;;;1.30;1.20;;;33.10;1.00;;;;;;5020338;28;20423;-75
2022/09/05 13:37:06;;;;;;;2.33;1.47;;;33.30;1.00;;;;;;5012829;28;20464;-76
2022/09/05 13:39:54;;;;;;;2.17;1.20;;;33.70;1.00;;;;;;5012139;28;20599;-74
2022/09/05 13:42:23;;;;;;;1.33;1.23;;;33.70;1.00;;;;;;5004065;28;20425;-74
2022/09/05 13:44:59;;;;;;;4.77;1.40;;;33.80;1.00;;;;;;5009524;28;20452;-75
2022/09/05 13:47:54;;;;;;;1.30;1.20;;;33.70;1.00;;;;;;5021985;28;20449;-74
2022/09/05 13:50:42;;;;;;;1.53;1.20;;;33.60;1.00;;;;;;5013279;28;20415;-74
2022/09/05 13:53:25;;;;;;;1.43;1.30;;;33.50;1.00;;;;;;5014750;28;20431;-74
2022/09/05 13:56:20;;;;;;;3.33;1.53;;;33.30;1.00;;;;;;5019408;28;20435;-74
2022/09/05 13:59:00;;;;;;;6.13;1.30;;;33.10;1.00;;;;;;5017262;28;20510;-75
2022/09/05 14:01:44;;;;;;;3.17;1.50;;;33.00;1.00;;;;;;5010832;28;20515;-75
2022/09/05 14:04:46;;;;;;;1.50;1.40;;;32.90;1.00;;;;;;5007998;28;20461;-75
2022/09/05 14:07:36;;;;;;;3.63;1.37;;;32.90;1.00;;;;;;5020448;28;20482;-75
2022/09/05 14:10:10;;;;;;;5.27;1.40;;;32.90;1.00;;;;;;5010511;28;20858;-75
2022/09/05 14:12:57;;;;;;;1.40;1.30;;;32.80;1.00;;;;;;5028651;28;20437;-75
2022/09/05 14:16:02;;;;;;;1.33;1.17;;;32.90;1.00;;;;;;5016636;28;20450;-76
2022/09/05 14:18:28;;;;;;;3.63;1.10;;;33.10;1.00;;;;;;5027663;28;20444;-77
2022/09/05 14:21:14;;;;;;;2.70;1.33;;;33.30;1.00;;;;;;5035810;28;20487;-75
2022/09/05 14:27:19;;;;;;;2.30;1.00;;;33.90;1.00;;;;;;5033234;28;20441;-78
2022/09/05 14:29:47;;;;;;;2.23;1.13;;;34.20;1.00;;;;;;5034486;28;20411;-77
2022/09/05 14:32:39;;;;;;;4.20;1.40;;;34.40;1.00;;;;;;5040164;28;20407;-80
2022/09/05 14:38:37;;;;;;;4.17;1.40;;;34.30;1.00;;;;;;5033545;28;20423;-80
2022/09/05 14:41:39;;;;;;;1.27;1.10;;;33.90;1.00;;;;;;5036777;28;20452;-78
2022/09/05 14:44:39;;;;;;;5.77;1.13;;;33.80;1.00;;;;;;5047106;28;20410;-79
2022/09/05 14:47:44;;;;;;;2.07;1.20;;;33.80;1.00;;;;;;5039788;28;20415;-78
2022/09/05 14:50:34;;;;;;;1.23;1.20;;;33.80;1.00;;;;;;5029921;28;20422;-79
2022/09/05 14:53:30;;;;;;;2.33;1.40;;;33.80;1.00;;;;;;5050736;28;20490;-79
2022/09/05 14:55:58;;;;;;;2.50;1.23;;;33.90;1.00;;;;;;5009308;28;21015;-79
2022/09/05 14:58:30;;;;;;;1.17;1.17;;;34.00;1.00;;;;;;5002730;28;20600;-80
2022/09/05 15:01:01;;;;;;;1.60;1.50;;;33.80;1.00;;;;;;4995378;28;20432;-81
2022/09/05 15:03:43;;;;;;;1.63;1.40;;;33.50;1.00;;;;;;4979497;28;20432;-80
2022/09/05 15:06:39;;;;;;;2.27;1.33;;;33.10;1.00;;;;;;5000020;28;20423;-80
2022/09/05 15:09:07;;;;;;;4.50;1.47;;;32.80;1.00;;;;;;4989566;28;20445;-80
2022/09/05 15:11:40;;;;;;;2.90;1.57;;;32.50;1.00;;;;;;4995434;28;20421;-77
2022/09/05 15:14:08;;;;;;;1.77;1.13;;;32.30;1.00;;;;;;5008665;28;20499;-77
2022/09/05 15:16:56;;;;;;;1.57;1.40;;;32.10;1.00;;;;;;5007533;28;20876;-77
2022/09/05 15:20:09;;;;;;;1.80;1.70;;;31.90;1.00;;;;;;5002144;28;20954;-77
2022/09/05 15:22:43;;;;;;;2.70;1.90;;;31.70;1.00;;;;;;4995155;28;20515;-76
2022/09/05 15:25:23;;;;;;;14.00;4.87;;;32.30;1.00;;;;;;5009060;28;20417;-78
2022/09/05 15:28:05;;;;;;;10.33;4.40;;;33.90;1.00;;;;;;5007325;28;20404;-78
2022/09/05 15:30:54;;;;;;;4.63;1.50;;;35.70;1.00;;;;;;4995086;28;20417;-80
2022/09/05 15:33:35;;;;;;;6.70;1.80;;;37.50;1.00;;;;;;5036542;28;20488;-79
2022/09/05 15:36:31;;;;;;;2.70;1.30;;;38.90;1.00;;;;;;5043571;28;20959;-79
2022/09/05 15:38:57;;;;;;;1.40;0.93;;;39.90;1.00;;;;;;5036899;28;20847;-80
2022/09/05 15:41:45;;;;;;;3.83;1.00;;;41.00;1.00;;;;;;5039753;28;20513;-79
2022/09/05 15:44:59;;;;;;;1.63;1.10;;;42.00;1.00;;;;;;5043290;28;20183;-79
2022/09/05 15:48:15;;;;;;;7.03;0.97;;;42.70;1.00;;;;;;5035451;28;20793;-80
2022/09/05 15:50:49;;;;;;;1.10;0.90;;;43.60;1.00;;;;;;5033437;28;20451;-79
2022/09/05 15:53:33;;;;;;;0.90;0.90;;;44.40;1.00;;;;;;5050812;28;20425;-78
2022/09/05 15:56:18;;;;;;;1.33;0.97;;;45.00;1.00;;;;;;5039787;28;20414;-78
2022/09/05 15:58:48;;;;;;;1.93;0.90;;;45.50;1.00;;;;;;5047751;28;20892;-78
2022/09/05 16:01:17;;;;;;;1.10;1.00;;;45.90;1.00;;;;;;5036735;28;20434;-78
2022/09/05 16:03:52;;;;;;;1.10;0.70;;;46.10;1.00;;;;;;5036655;28;20433;-79
2022/09/05 16:06:28;;;;;;;0.70;0.70;;;46.40;1.00;;;;;;5047674;28;20413;-79
2022/09/05 16:08:59;;;;;;;0.80;0.80;;;46.60;1.00;;;;;;5049613;28;20431;-79
2022/09/05 16:11:34;;;;;;;0.93;0.83;;;46.80;1.00;;;;;;5036198;28;20521;-78
2022/09/05 16:14:47;;;;;;;2.57;0.70;;;47.00;1.00;;;;;;5040581;28;20505;-80
2022/09/05 16:17:34;;;;;;;1.00;1.00;;;47.20;1.00;;;;;;5013835;28;20570;-81
2022/09/05 16:30:25;;;;;;;0.93;0.70;;;46.20;1.00;;;;;;5004256;28;20439;-85
2022/09/05 16:36:21;;;;;;;2.10;0.90;;;46.40;1.00;;;;;;4994400;28;20794;-83
2022/09/05 16:39:39;;;;;;;2.30;0.90;;;46.50;1.00;;;;;;5013663;28;20458;-81
2022/09/05 16:42:23;;;;;;;2.67;0.90;;;46.50;1.00;;;;;;4982550;28;20429;-81
2022/09/05 16:45:21;;;;;;;1.27;0.93;;;45.60;1.00;;;;;;5005925;28;20958;-80
2022/09/05 16:51:18;;;;;;;1.07;1.00;;;42.80;1.00;;;;;;5041908;28;20386;-87
2022/09/05 16:57:31;;;;;;;2.03;1.07;;;39.90;1.00;;;;;;5032319;28;20827;-78
2022/09/05 17:07:27;;;;;;;2.03;1.17;;;36.20;1.00;;;;;;5033577;28;20406;-80
2022/09/05 17:09:53;;;;;;;4.10;1.40;;;35.10;1.00;;;;;;5033496;28;20430;-81
2022/09/05 17:12:26;;;;;;;1.23;1.13;;;34.20;1.00;;;;;;5033634;28;20932;-71